Time;durP1;ratioP1;P1;durP2;ratioP2;P2;SDS_P1;SDS_P2;PMS_P1;PMS_P2;Temp;Humidity;BMP_temperature;BMP_pressure;BME280_temperature;BME280_humidity;BME280_pressure;Samples;Min_cycle;Max_cycle;Signal;HPM_P1;HPM_P2
2020/12/16 00:01:06;;;;;;;58.08;35.95;;;22.20;33.30;;;;;;6180237;28;83529;-52
2020/12/16 00:04:07;;;;;;;60.72;36.22;;;22.20;33.30;;;;;;6177557;28;83774;-54
2020/12/16 00:07:07;;;;;;;58.97;35.22;;;22.20;33.20;;;;;;6176711;28;84071;-52
2020/12/16 00:10:08;;;;;;;62.25;35.38;;;22.20;33.20;;;;;;6178174;28;83528;-53
2020/12/16 00:13:10;;;;;;;61.00;35.10;;;22.20;33.20;;;;;;6179492;27;84093;-54
2020/12/16 00:16:11;;;;;;;60.47;34.95;;;22.20;33.20;;;;;;6178039;28;83996;-53
2020/12/16 00:19:11;;;;;;;65.88;36.45;;;22.20;33.30;;;;;;6177355;27;83079;-54
2020/12/16 00:22:12;;;;;;;62.60;35.35;;;22.20;33.20;;;;;;6178427;28;83751;-52
2020/12/16 00:25:13;;;;;;;59.47;35.53;;;22.10;33.10;;;;;;6178493;28;83811;-55
2020/12/16 00:28:13;;;;;;;58.15;34.88;;;22.20;33.20;;;;;;6176700;27;83556;-55
2020/12/16 00:31:14;;;;;;;59.65;35.08;;;22.10;33.10;;;;;;6175345;28;85632;-52
2020/12/16 00:34:14;;;;;;;59.63;34.25;;;22.10;33.00;;;;;;6177499;27;83133;-49
2020/12/16 00:37:15;;;;;;;59.00;35.85;;;22.10;33.00;;;;;;6181482;28;85667;-55
2020/12/16 00:40:17;;;;;;;60.72;36.08;;;22.10;32.80;;;;;;6181605;27;83012;-53
2020/12/16 00:43:17;;;;;;;58.97;35.00;;;22.10;32.90;;;;;;6179472;28;84046;-51
2020/12/16 00:46:18;;;;;;;57.47;35.88;;;22.10;33.00;;;;;;6177217;28;84130;-55
2020/12/16 00:49:18;;;;;;;60.75;36.03;;;22.10;33.00;;;;;;6174460;28;83401;-52
2020/12/16 00:52:19;;;;;;;59.30;35.75;;;22.10;32.90;;;;;;6172654;27;86002;-53
2020/12/16 00:55:20;;;;;;;64.45;34.80;;;22.10;33.00;;;;;;6172360;28;83273;-53
2020/12/16 00:58:20;;;;;;;61.47;36.00;;;22.10;33.10;;;;;;6178008;27;84071;-52
2020/12/16 01:01:26;;;;;;;59.13;35.17;;;22.10;33.00;;;;;;6176941;28;84186;-53
2020/12/16 01:04:27;;;;;;;61.40;35.53;;;22.10;33.00;;;;;;6174635;27;86626;-54
2020/12/16 01:07:28;;;;;;;60.03;36.05;;;22.10;33.10;;;;;;6175054;28;85485;-55
2020/12/16 01:10:28;;;;;;;59.03;35.70;;;22.10;33.00;;;;;;6177236;28;83627;-53
2020/12/16 01:13:29;;;;;;;64.47;36.25;;;22.10;33.00;;;;;;6175863;28;85328;-54
2020/12/16 01:16:30;;;;;;;61.13;36.42;;;22.10;33.10;;;;;;6170269;28;87573;-50
2020/12/16 01:19:30;;;;;;;63.90;37.38;;;22.10;33.10;;;;;;6173158;28;85863;-55
2020/12/16 01:22:31;;;;;;;60.83;36.78;;;22.10;33.00;;;;;;6177492;28;85840;-53
2020/12/16 01:25:31;;;;;;;57.55;34.35;;;22.00;33.00;;;;;;6174199;28;85721;-49
2020/12/16 01:28:36;;;;;;;61.65;36.97;;;22.00;33.20;;;;;;6173803;28;83503;-52
2020/12/16 01:31:42;;;;;;;59.13;36.47;;;22.00;33.20;;;;;;6168541;28;85483;-53
2020/12/16 01:34:45;;;;;;;56.25;34.15;;;22.00;33.20;;;;;;6177930;27;84212;-56
2020/12/16 01:37:46;;;;;;;55.47;34.35;;;22.00;33.20;;;;;;6178846;28;83503;-54
2020/12/16 01:40:47;;;;;;;58.38;35.88;;;22.00;33.20;;;;;;6171185;28;84008;-56
2020/12/16 01:43:48;;;;;;;59.25;35.30;;;22.00;33.20;;;;;;6172612;28;85318;-54
2020/12/16 01:46:52;;;;;;;59.88;35.58;;;22.00;33.20;;;;;;6174104;28;86053;-54
2020/12/16 01:49:57;;;;;;;59.20;33.33;;;22.00;33.20;;;;;;6174733;28;85062;-53
2020/12/16 01:52:58;;;;;;;58.10;34.88;;;22.00;33.20;;;;;;6183423;27;83688;-53
2020/12/16 01:56:13;;;;;;;58.53;33.72;;;22.00;33.20;;;;;;6167747;28;84435;-53
2020/12/16 01:59:27;;;;;;;61.33;35.67;;;22.00;33.10;;;;;;6173555;28;85785;-50
2020/12/16 02:02:31;;;;;;;56.35;34.65;;;22.00;33.10;;;;;;6174667;28;85628;-52
2020/12/16 02:05:32;;;;;;;62.42;34.28;;;22.00;33.20;;;;;;6172753;27;85165;-52
2020/12/16 02:08:38;;;;;;;;;;;22.00;33.10;;;;;;6174166;28;85884;-53
2020/12/16 02:11:41;;;;;;;58.33;33.83;;;22.00;32.90;;;;;;6185290;28;85800;-49
2020/12/16 02:14:51;;;;;;;62.90;35.08;;;22.00;32.80;;;;;;6176654;28;83648;-50
2020/12/16 02:17:55;;;;;;;60.33;34.20;;;21.90;32.80;;;;;;6166682;28;84196;-52
2020/12/16 02:20:56;;;;;;;58.85;33.85;;;22.00;32.80;;;;;;6179259;28;85521;-53
2020/12/16 02:23:58;;;;;;;57.25;33.80;;;22.00;33.00;;;;;;6175911;28;85603;-52
2020/12/16 02:27:17;;;;;;;57.75;33.15;;;22.00;33.10;;;;;;6170216;28;87411;-53
2020/12/16 02:30:18;;;;;;;55.17;32.53;;;22.00;33.20;;;;;;6175009;27;83274;-53
2020/12/16 02:33:41;;;;;;;57.60;33.00;;;22.00;33.30;;;;;;6165455;28;83236;-49
2020/12/16 02:36:53;;;;;;;50.95;30.23;;;22.00;33.40;;;;;;6170286;28;85390;-53
2020/12/16 02:40:08;;;;;;;51.58;30.65;;;22.00;33.40;;;;;;6176363;28;85691;-52
2020/12/16 02:43:08;;;;;;;56.03;31.10;;;22.00;33.40;;;;;;6173078;28;84977;-52
2020/12/16 02:46:09;;;;;;;54.17;30.65;;;22.00;33.60;;;;;;6160946;28;84164;-48
2020/12/16 02:49:10;;;;;;;46.80;28.40;;;22.00;33.80;;;;;;6176634;28;93588;-52
2020/12/16 02:52:10;;;;;;;53.10;29.23;;;22.00;34.30;;;;;;6172737;27;86014;-54
2020/12/16 02:55:11;;;;;;;49.25;28.50;;;22.00;34.40;;;;;;6174360;28;85824;-54
2020/12/16 02:58:23;;;;;;;47.40;28.55;;;22.00;34.70;;;;;;6165251;27;85988;-54
2020/12/16 03:01:25;;;;;;;49.78;30.10;;;22.00;34.60;;;;;;6172729;28;86293;-53
2020/12/16 03:04:41;;;;;;;51.47;29.10;;;22.00;34.70;;;;;;6176013;28;85678;-57
2020/12/16 03:07:54;;;;;;;48.35;28.90;;;22.00;34.70;;;;;;6177329;27;85633;-54
2020/12/16 03:10:55;;;;;;;46.53;27.38;;;22.00;34.80;;;;;;6154032;28;85087;-52
2020/12/16 03:13:55;;;;;;;46.80;28.05;;;22.00;34.80;;;;;;6168194;27;84788;-56
2020/12/16 03:16:56;;;;;;;49.67;28.80;;;22.00;34.80;;;;;;6185153;28;84687;-52
2020/12/16 03:20:05;;;;;;;48.38;27.75;;;22.00;34.80;;;;;;6180589;27;86038;-53
2020/12/16 03:23:07;;;;;;;46.10;27.52;;;21.90;34.70;;;;;;6175923;28;85302;-54
2020/12/16 03:26:27;;;;;;;51.70;27.83;;;22.00;34.80;;;;;;6178490;28;83360;-54
2020/12/16 03:29:53;;;;;;;44.45;25.55;;;22.00;35.00;;;;;;6166038;28;84571;-53
2020/12/16 03:33:08;;;;;;;50.90;27.30;;;22.00;35.00;;;;;;6175223;28;85426;-53
2020/12/16 03:36:19;;;;;;;50.75;27.40;;;21.90;34.90;;;;;;6177679;28;90066;-51
2020/12/16 03:39:20;;;;;;;40.20;24.50;;;21.90;34.90;;;;;;6178727;28;85257;-52
2020/12/16 03:42:21;;;;;;;41.13;25.38;;;21.90;34.80;;;;;;6179046;28;84291;-54
2020/12/16 03:45:22;;;;;;;47.17;26.55;;;21.90;34.90;;;;;;6181392;27;85833;-53
2020/12/16 03:48:23;;;;;;;45.72;25.20;;;21.90;34.90;;;;;;6177687;28;85624;-58
2020/12/16 03:51:23;;;;;;;44.75;24.88;;;21.90;35.00;;;;;;6179886;28;85951;-54
2020/12/16 03:54:30;;;;;;;44.38;24.15;;;21.90;35.00;;;;;;6182400;27;85568;-53
2020/12/16 03:57:55;;;;;;;43.75;24.98;;;21.90;35.20;;;;;;6176594;28;84002;-55
2020/12/16 04:01:11;;;;;;;43.15;25.25;;;21.90;34.80;;;;;;6172798;28;84025;-55
2020/12/16 04:04:12;;;;;;;46.85;25.50;;;21.90;34.70;;;;;;6177655;28;83829;-53
2020/12/16 04:07:18;;;;;;;44.83;24.98;;;21.90;34.60;;;;;;6187704;27;84177;-53
2020/12/16 04:10:30;;;;;;;46.10;25.20;;;21.90;34.50;;;;;;6177296;28;85447;-52
2020/12/16 04:13:31;;;;;;;42.58;24.67;;;21.90;34.80;;;;;;6176957;28;84656;-51
2020/12/16 04:16:32;;;;;;;43.33;24.00;;;21.90;34.70;;;;;;6169279;28;84140;-53
2020/12/16 04:19:41;;;;;;;48.72;25.70;;;21.90;34.60;;;;;;6169762;28;85728;-51
2020/12/16 04:22:42;;;;;;;41.50;23.58;;;21.90;34.80;;;;;;6161165;28;85948;-50
2020/12/16 04:25:43;;;;;;;38.97;23.30;;;21.90;34.80;;;;;;6176837;28;85053;-54
2020/12/16 04:29:04;;;;;;;42.58;23.80;;;21.90;34.60;;;;;;6178287;27;83699;-50
2020/12/16 04:32:04;;;;;;;41.53;24.20;;;22.00;34.90;;;;;;6173382;28;85739;-49
2020/12/16 04:35:12;;;;;;;38.80;23.92;;;21.90;34.80;;;;;;6182375;27;85757;-50
2020/12/16 04:38:16;;;;;;;40.28;22.77;;;21.90;34.70;;;;;;6183988;28;85148;-55
2020/12/16 04:41:24;;;;;;;41.03;22.75;;;22.00;34.80;;;;;;6173631;28;84102;-51
2020/12/16 04:44:35;;;;;;;38.50;21.38;;;22.00;35.10;;;;;;6173796;28;84341;-52
2020/12/16 04:47:40;;;;;;;41.63;22.55;;;22.00;35.30;;;;;;6185200;27;89330;-54
2020/12/16 04:50:49;;;;;;;42.53;23.25;;;22.10;34.90;;;;;;6178553;28;85498;-50
2020/12/16 04:53:51;;;;;;;39.38;21.38;;;22.10;35.20;;;;;;6179262;28;85477;-50
2020/12/16 04:56:59;;;;;;;46.05;21.50;;;22.10;34.90;;;;;;6180183;28;85180;-48
2020/12/16 05:00:08;;;;;;;40.90;21.42;;;22.10;35.30;;;;;;6174838;28;85778;-51
2020/12/16 05:03:32;;;;;;;38.40;21.77;;;22.20;34.90;;;;;;6171775;28;89494;-51
2020/12/16 05:06:41;;;;;;;42.38;23.60;;;22.20;34.00;;;;;;6177051;28;85872;-53
2020/12/16 05:09:42;;;;;;;41.08;22.50;;;22.30;34.50;;;;;;6177837;28;83387;-51
2020/12/16 05:12:42;;;;;;;32.65;17.30;;;22.30;34.70;;;;;;6184245;27;83333;-53
2020/12/16 05:15:43;;;;;;;26.70;16.38;;;22.40;38.20;;;;;;6181240;28;83301;-53
2020/12/16 05:18:43;;;;;;;40.10;19.17;;;22.40;39.20;;;;;;6180096;27;84299;-53
2020/12/16 05:21:44;;;;;;;43.95;23.55;;;22.40;36.20;;;;;;6179483;28;83141;-51
2020/12/16 05:24:45;;;;;;;39.42;22.35;;;22.50;34.10;;;;;;6171151;28;84192;-50
2020/12/16 05:27:45;;;;;;;36.83;22.23;;;22.50;34.60;;;;;;6177091;28;83812;-52
2020/12/16 05:30:46;;;;;;;36.38;21.17;;;22.60;34.70;;;;;;6158787;28;84817;-49
2020/12/16 05:33:46;;;;;;;35.50;21.35;;;22.60;35.00;;;;;;6172665;28;86015;-51
2020/12/16 05:36:47;;;;;;;42.03;21.95;;;22.60;36.50;;;;;;6176650;27;83561;-52
2020/12/16 05:39:47;;;;;;;44.88;21.08;;;22.60;36.90;;;;;;6175600;28;84929;-52
2020/12/16 05:42:48;;;;;;;36.75;22.17;;;22.60;35.70;;;;;;6176976;27;83730;-52
2020/12/16 05:45:48;;;;;;;36.42;20.95;;;22.60;36.50;;;;;;6176707;28;83511;-52
2020/12/16 05:48:49;;;;;;;37.55;21.23;;;22.60;35.60;;;;;;6161483;27;84096;-53
2020/12/16 05:51:49;;;;;;;37.10;21.63;;;22.70;34.60;;;;;;6175963;28;82899;-50
2020/12/16 05:54:50;;;;;;;44.20;21.30;;;22.70;34.70;;;;;;6177586;28;83019;-54
2020/12/16 05:57:51;;;;;;;40.78;20.65;;;22.80;34.90;;;;;;6177881;28;84550;-53
2020/12/16 06:00:51;;;;;;;41.50;22.52;;;22.80;34.90;;;;;;6179081;28;82990;-54
2020/12/16 06:03:52;;;;;;;39.05;20.75;;;22.80;35.00;;;;;;6160434;27;83885;-52
2020/12/16 06:06:52;;;;;;;35.92;20.48;;;22.80;35.00;;;;;;6178458;28;84113;-53
2020/12/16 06:09:53;;;;;;;42.13;22.73;;;22.90;35.00;;;;;;6175878;27;83509;-50
2020/12/16 06:12:53;;;;;;;39.72;20.70;;;22.90;35.10;;;;;;6158515;28;83467;-53
2020/12/16 06:15:54;;;;;;;36.67;21.35;;;22.90;35.00;;;;;;6177439;27;83535;-51
2020/12/16 06:18:54;;;;;;;41.10;21.50;;;22.90;35.00;;;;;;6175934;28;83954;-50
2020/12/16 06:21:56;;;;;;;39.85;21.20;;;22.90;34.90;;;;;;6166913;28;84005;-52
2020/12/16 06:24:56;;;;;;;38.67;22.00;;;22.90;34.80;;;;;;6176454;28;83467;-54
2020/12/16 06:27:57;;;;;;;37.50;20.88;;;22.90;34.70;;;;;;6175162;28;86105;-54
2020/12/16 06:30:57;;;;;;;39.83;21.58;;;22.90;34.60;;;;;;6172363;27;87012;-57
2020/12/16 06:33:58;;;;;;;35.45;20.65;;;22.90;34.60;;;;;;6176978;28;84021;-49
2020/12/16 06:36:58;;;;;;;37.80;21.60;;;22.90;34.70;;;;;;6188941;27;90477;-49
2020/12/16 06:39:59;;;;;;;35.67;20.38;;;22.90;34.50;;;;;;6175945;28;84880;-49
2020/12/16 06:42:59;;;;;;;32.72;19.60;;;22.90;34.90;;;;;;6174149;27;83339;-51
2020/12/16 06:46:00;;;;;;;37.22;21.40;;;22.90;34.70;;;;;;6185946;28;83991;-48
2020/12/16 06:49:01;;;;;;;35.63;21.02;;;22.80;35.50;;;;;;6177180;27;83852;-48
2020/12/16 06:52:03;;;;;;;37.20;20.98;;;22.80;34.30;;;;;;6172713;28;84069;-49
2020/12/16 06:55:03;;;;;;;37.95;21.15;;;22.80;34.70;;;;;;6180751;28;84713;-49
2020/12/16 06:58:04;;;;;;;42.75;22.20;;;22.80;34.50;;;;;;6175142;28;84071;-50
2020/12/16 07:01:04;;;;;;;38.78;21.40;;;22.80;34.60;;;;;;6176622;28;83416;-50
2020/12/16 07:04:05;;;;;;;37.70;20.73;;;22.80;34.70;;;;;;6175535;28;83388;-49
2020/12/16 07:07:05;;;;;;;34.70;21.77;;;22.70;35.00;;;;;;6163040;27;85171;-50
2020/12/16 07:10:06;;;;;;;35.75;20.75;;;22.70;35.10;;;;;;6172872;28;84158;-49
2020/12/16 07:13:06;;;;;;;38.22;20.73;;;22.70;35.20;;;;;;6175433;28;83091;-49
2020/12/16 07:16:12;;;;;;;37.13;20.80;;;22.60;35.00;;;;;;6182146;28;84297;-50
2020/12/16 07:19:12;;;;;;;38.58;20.98;;;22.60;35.10;;;;;;6175735;27;83242;-49
2020/12/16 07:22:13;;;;;;;329.75;104.07;;;22.60;35.40;;;;;;6180020;28;83552;-54
2020/12/16 07:25:13;;;;;;;760.22;287.38;;;22.60;35.30;;;;;;6173259;28;85918;-49
2020/12/16 07:28:14;;;;;;;1046.65;405.75;;;22.70;34.90;;;;;;6171110;28;86794;-53
2020/12/16 07:31:14;;;;;;;878.78;331.67;;;22.70;34.90;;;;;;6172404;28;85820;-50
2020/12/16 07:34:15;;;;;;;1025.93;398.98;;;22.70;34.80;;;;;;6169661;28;85706;-51
2020/12/16 07:37:16;;;;;;;1163.70;448.58;;;22.70;35.00;;;;;;6171675;28;88964;-56
2020/12/16 07:40:16;;;;;;;1319.13;496.88;;;22.70;35.00;;;;;;6172872;28;85374;-54
2020/12/16 07:43:17;;;;;;;1329.35;492.67;;;22.70;35.10;;;;;;6170605;28;86802;-53
2020/12/16 07:46:17;;;;;;;1026.30;397.10;;;22.80;35.50;;;;;;6164170;28;86986;-53
2020/12/16 07:49:20;;;;;;;1091.63;415.80;;;22.70;35.50;;;;;;6171160;28;86032;-53
2020/12/16 07:52:20;;;;;;;992.55;386.73;;;22.70;35.40;;;;;;6168056;27;85972;-53
2020/12/16 07:55:21;;;;;;;849.33;334.92;;;22.70;35.60;;;;;;6166327;28;85873;-54
2020/12/16 07:58:21;;;;;;;832.10;322.33;;;22.70;35.70;;;;;;6176339;27;85846;-50
2020/12/16 08:01:22;;;;;;;793.03;299.30;;;22.70;35.60;;;;;;6173707;28;86006;-52
2020/12/16 08:04:22;;;;;;;694.90;264.83;;;22.70;35.20;;;;;;6171575;27;85337;-49
2020/12/16 08:07:23;;;;;;;670.85;258.50;;;22.80;35.70;;;;;;6173135;28;86716;-50
2020/12/16 08:10:23;;;;;;;608.70;227.90;;;22.80;35.10;;;;;;6175793;27;85731;-56
2020/12/16 08:13:24;;;;;;;591.33;217.35;;;22.80;35.10;;;;;;6178429;28;90169;-54
2020/12/16 08:16:24;;;;;;;583.10;205.57;;;22.80;35.10;;;;;;6177919;27;85395;-49
2020/12/16 08:19:25;;;;;;;516.60;180.45;;;22.80;35.40;;;;;;6162670;28;85986;-51
2020/12/16 08:22:26;;;;;;;472.98;169.38;;;22.90;35.40;;;;;;6174313;27;92415;-49
2020/12/16 08:25:26;;;;;;;458.38;155.82;;;22.90;35.60;;;;;;6181476;28;86945;-54
2020/12/16 08:28:27;;;;;;;445.08;152.75;;;22.90;35.30;;;;;;6173337;27;87993;-52
2020/12/16 08:31:27;;;;;;;418.85;140.88;;;22.90;35.30;;;;;;6172044;28;88668;-54
2020/12/16 08:34:28;;;;;;;359.63;130.98;;;22.90;35.20;;;;;;6161928;27;87650;-51
2020/12/16 08:37:28;;;;;;;348.33;120.88;;;23.00;35.00;;;;;;6172259;28;87474;-55
2020/12/16 08:40:29;;;;;;;327.40;116.07;;;23.00;34.70;;;;;;6171881;28;86444;-51
2020/12/16 08:43:29;;;;;;;303.13;111.55;;;23.10;34.90;;;;;;6168576;28;88186;-54
2020/12/16 08:46:30;;;;;;;281.23;104.85;;;23.10;35.20;;;;;;6172431;28;86126;-52
2020/12/16 08:49:31;;;;;;;251.07;97.07;;;23.10;34.80;;;;;;6171438;28;85613;-52
2020/12/16 08:52:31;;;;;;;250.00;93.40;;;23.20;35.00;;;;;;6164140;27;85491;-52
2020/12/16 08:55:32;;;;;;;242.23;87.65;;;23.30;34.70;;;;;;6174196;28;83949;-52
2020/12/16 08:58:32;;;;;;;212.60;83.75;;;23.30;35.20;;;;;;6175467;27;83879;-58
2020/12/16 09:01:33;;;;;;;201.30;78.90;;;23.40;34.40;;;;;;6174426;28;83549;-53
2020/12/16 09:04:33;;;;;;;192.55;77.60;;;23.50;34.30;;;;;;6172454;28;83399;-51
2020/12/16 09:07:35;;;;;;;169.25;71.68;;;23.50;34.60;;;;;;6168180;28;83486;-50
2020/12/16 09:10:35;;;;;;;180.82;69.72;;;23.50;34.50;;;;;;6173452;27;83387;-50
2020/12/16 09:13:36;;;;;;;163.43;65.60;;;23.50;34.60;;;;;;6178081;28;83704;-51
2020/12/16 09:16:37;;;;;;;152.60;63.67;;;23.50;34.70;;;;;;6191572;27;83766;-49
2020/12/16 09:19:37;;;;;;;153.70;63.80;;;23.50;34.90;;;;;;6175914;28;84076;-49
2020/12/16 09:22:38;;;;;;;149.85;61.03;;;23.60;35.50;;;;;;6183024;28;82992;-55
2020/12/16 09:25:38;;;;;;;145.73;59.58;;;23.60;35.30;;;;;;6183321;28;84309;-51
2020/12/16 09:28:39;;;;;;;139.93;58.33;;;23.70;34.80;;;;;;6174686;27;84186;-48
2020/12/16 09:31:39;;;;;;;145.45;57.92;;;23.70;34.60;;;;;;6174174;28;82970;-47
2020/12/16 09:34:40;;;;;;;124.00;52.75;;;23.70;34.40;;;;;;6170891;28;86773;-54
2020/12/16 09:37:40;;;;;;;122.65;50.08;;;23.70;34.10;;;;;;6176327;27;83240;-51
2020/12/16 09:40:42;;;;;;;117.90;49.13;;;23.80;34.10;;;;;;6167273;28;83820;-51
2020/12/16 09:43:43;;;;;;;105.60;46.47;;;23.80;34.10;;;;;;6175336;27;90759;-48
2020/12/16 09:46:43;;;;;;;97.65;44.08;;;23.90;34.20;;;;;;6176129;28;83988;-51
2020/12/16 09:49:44;;;;;;;93.53;41.42;;;23.90;34.50;;;;;;6175714;27;85879;-51
2020/12/16 09:52:44;;;;;;;94.82;42.08;;;24.00;34.30;;;;;;6177137;28;83750;-53
2020/12/16 09:55:45;;;;;;;88.28;39.67;;;24.00;34.40;;;;;;6169818;27;83387;-48
2020/12/16 09:58:45;;;;;;;102.70;41.00;;;24.00;34.20;;;;;;6179502;28;83489;-53
2020/12/16 10:01:46;;;;;;;81.85;38.42;;;24.00;34.20;;;;;;6177384;28;84244;-50
2020/12/16 10:04:46;;;;;;;83.22;38.17;;;24.00;34.10;;;;;;6179720;27;83477;-52
2020/12/16 10:07:47;;;;;;;85.05;37.67;;;24.00;34.00;;;;;;6176125;28;84174;-50
2020/12/16 10:10:47;;;;;;;76.47;35.42;;;24.00;34.00;;;;;;6174428;27;84215;-50
2020/12/16 10:14:06;;;;;;;77.50;32.63;;;24.00;33.80;;;;;;6175971;28;84086;-51
2020/12/16 10:17:07;;;;;;;69.28;33.42;;;24.00;33.60;;;;;;6157769;27;83556;-48
2020/12/16 10:20:08;;;;;;;73.85;34.42;;;24.00;34.30;;;;;;6174831;28;84435;-51
2020/12/16 10:23:08;;;;;;;64.60;31.77;;;24.10;33.90;;;;;;6162454;27;83751;-52
2020/12/16 10:26:09;;;;;;;67.30;31.15;;;24.10;34.00;;;;;;6175181;28;83875;-49
2020/12/16 10:29:09;;;;;;;66.20;29.25;;;24.20;34.00;;;;;;6182669;28;84471;-52
2020/12/16 10:32:10;;;;;;;66.35;31.13;;;24.20;34.10;;;;;;6176326;28;83485;-50
2020/12/16 10:35:10;;;;;;;60.05;28.95;;;24.30;33.90;;;;;;6177330;28;83052;-49
2020/12/16 10:38:11;;;;;;;56.33;28.65;;;24.30;33.80;;;;;;6180748;27;83204;-52
2020/12/16 10:41:12;;;;;;;55.88;29.58;;;24.40;33.80;;;;;;6179598;28;83285;-54
2020/12/16 10:44:12;;;;;;;53.67;28.15;;;24.40;33.80;;;;;;6184153;27;84154;-52
2020/12/16 10:47:13;;;;;;;61.38;28.45;;;24.50;34.20;;;;;;6182587;28;83044;-52
2020/12/16 10:50:13;;;;;;;63.95;29.92;;;24.60;33.80;;;;;;6174806;28;87111;-50
2020/12/16 10:53:14;;;;;;;60.17;29.13;;;24.60;33.70;;;;;;6173227;27;84271;-52
2020/12/16 10:56:14;;;;;;;56.80;27.38;;;24.60;33.50;;;;;;6171803;28;83179;-50
2020/12/16 10:59:15;;;;;;;56.38;27.08;;;24.50;33.30;;;;;;6177986;27;83217;-48
2020/12/16 11:02:15;;;;;;;58.05;29.20;;;24.50;33.20;;;;;;6166927;28;84316;-48
2020/12/16 11:05:16;;;;;;;53.90;29.90;;;24.50;33.30;;;;;;6186720;27;83365;-51
2020/12/16 11:08:17;;;;;;;58.92;31.63;;;24.50;33.60;;;;;;6174166;28;84233;-53
2020/12/16 11:11:17;;;;;;;62.17;31.77;;;24.50;33.40;;;;;;6160214;27;84912;-51
2020/12/16 11:14:18;;;;;;;59.05;31.58;;;24.50;33.40;;;;;;6179247;28;83238;-53
2020/12/16 11:17:18;;;;;;;54.33;32.70;;;24.50;33.60;;;;;;6175536;28;84359;-50
2020/12/16 11:20:19;;;;;;;62.63;32.85;;;24.50;33.90;;;;;;6165997;27;83435;-52
2020/12/16 11:23:19;;;;;;;57.38;33.42;;;24.60;33.90;;;;;;6173814;28;84154;-50
2020/12/16 11:26:20;;;;;;;61.70;33.92;;;24.70;34.00;;;;;;6175162;27;84288;-51
2020/12/16 11:29:21;;;;;;;80.78;32.88;;;24.80;34.10;;;;;;6177505;28;84036;-54
2020/12/16 11:32:22;;;;;;;63.17;32.10;;;24.80;34.30;;;;;;6182767;27;83277;-49
2020/12/16 11:35:37;;;;;;;58.10;31.37;;;24.80;34.50;;;;;;6161590;28;83793;-51
2020/12/16 11:38:38;;;;;;;59.95;30.83;;;24.80;34.60;;;;;;6179668;28;83285;-54
2020/12/16 11:41:38;;;;;;;56.22;27.27;;;24.80;34.50;;;;;;6177881;28;84157;-54
2020/12/16 11:44:39;;;;;;;50.28;26.20;;;24.80;34.40;;;;;;6178887;28;83938;-53
2020/12/16 11:47:39;;;;;;;58.28;26.33;;;24.80;34.60;;;;;;6155980;27;85509;-51
2020/12/16 11:50:41;;;;;;;58.92;26.80;;;24.70;34.30;;;;;;6178298;28;83300;-54
2020/12/16 11:53:41;;;;;;;47.90;25.15;;;24.70;34.00;;;;;;6178326;27;83808;-53
2020/12/16 11:56:42;;;;;;;41.45;23.60;;;24.70;33.90;;;;;;6176888;28;83850;-49
2020/12/16 11:59:42;;;;;;;41.38;22.98;;;24.60;33.80;;;;;;6184515;28;84493;-47
2020/12/16 12:02:43;;;;;;;44.72;23.35;;;24.60;33.60;;;;;;6177526;28;84204;-53
2020/12/16 12:05:43;;;;;;;47.08;24.73;;;24.60;33.30;;;;;;6182792;28;84115;-51
2020/12/16 12:08:44;;;;;;;44.95;23.60;;;24.60;33.40;;;;;;6178515;28;83325;-49
2020/12/16 12:11:45;;;;;;;39.17;21.95;;;24.60;33.50;;;;;;6180118;28;83328;-48
2020/12/16 12:14:45;;;;;;;36.10;20.02;;;24.60;33.20;;;;;;6179779;28;84264;-48
2020/12/16 12:17:46;;;;;;;39.08;21.35;;;24.60;33.20;;;;;;6177786;27;84533;-53
2020/12/16 12:20:46;;;;;;;34.92;19.90;;;24.50;33.20;;;;;;6177410;28;83413;-49
2020/12/16 12:23:47;;;;;;;40.05;19.40;;;24.60;33.10;;;;;;6178069;28;83947;-51
2020/12/16 12:26:47;;;;;;;31.65;18.77;;;24.60;32.90;;;;;;6166984;27;83969;-48
2020/12/16 12:29:48;;;;;;;32.38;18.92;;;24.60;32.80;;;;;;6177164;28;84221;-55
2020/12/16 12:32:48;;;;;;;37.05;19.70;;;24.60;33.00;;;;;;6175772;27;84660;-56
2020/12/16 12:35:49;;;;;;;32.13;17.98;;;24.60;33.00;;;;;;6169451;28;88412;-53
2020/12/16 12:38:49;;;;;;;31.50;18.00;;;24.70;33.50;;;;;;6180218;28;84106;-50
2020/12/16 12:41:50;;;;;;;33.35;17.73;;;24.70;33.60;;;;;;6177430;28;83896;-50
2020/12/16 12:44:50;;;;;;;30.05;17.30;;;24.70;33.50;;;;;;6182683;27;83001;-53
2020/12/16 12:48:10;;;;;;;32.42;18.17;;;24.60;33.60;;;;;;6164636;28;83633;-55
2020/12/16 12:51:10;;;;;;;31.85;17.08;;;24.50;33.10;;;;;;6169584;27;84588;-53
2020/12/16 12:54:11;;;;;;;29.02;17.35;;;24.50;33.50;;;;;;6173883;28;83141;-51
2020/12/16 12:57:12;;;;;;;29.42;16.45;;;24.50;33.40;;;;;;6173274;27;83766;-51
2020/12/16 13:00:12;;;;;;;28.42;16.73;;;24.40;33.30;;;;;;6171990;28;83324;-52
2020/12/16 13:03:13;;;;;;;28.27;16.30;;;24.40;33.50;;;;;;6173869;27;83325;-51
2020/12/16 13:06:14;;;;;;;27.77;16.67;;;24.30;33.40;;;;;;6170407;28;83319;-52
2020/12/16 13:09:14;;;;;;;32.70;17.17;;;24.20;33.40;;;;;;6169500;27;84449;-54
2020/12/16 13:12:15;;;;;;;28.27;16.48;;;24.10;33.30;;;;;;6176508;28;84143;-53
2020/12/16 13:15:15;;;;;;;28.02;15.73;;;24.10;33.10;;;;;;6174079;27;84203;-53
2020/12/16 13:18:16;;;;;;;31.13;15.77;;;24.00;33.40;;;;;;6172278;28;84108;-54
2020/12/16 13:21:18;;;;;;;25.75;15.77;;;24.00;33.50;;;;;;6173269;27;85034;-52
2020/12/16 13:24:19;;;;;;;28.45;15.73;;;24.00;33.30;;;;;;6173791;28;86256;-53
2020/12/16 13:27:19;;;;;;;24.25;14.82;;;23.90;33.30;;;;;;6164953;27;83286;-54
2020/12/16 13:30:20;;;;;;;24.92;14.70;;;23.90;33.20;;;;;;6168151;28;84330;-56
2020/12/16 13:33:21;;;;;;;24.02;14.63;;;23.90;33.00;;;;;;6172857;28;83344;-53
2020/12/16 13:36:21;;;;;;;29.17;15.38;;;23.90;33.00;;;;;;6173675;28;84514;-54
2020/12/16 13:39:22;;;;;;;31.40;16.42;;;23.90;32.80;;;;;;6172291;28;83726;-52
2020/12/16 13:42:22;;;;;;;26.38;15.32;;;23.90;32.70;;;;;;6173907;28;84381;-54
2020/12/16 13:45:23;;;;;;;29.30;18.08;;;23.90;32.80;;;;;;6173412;27;84444;-52
2020/12/16 13:48:24;;;;;;;31.45;16.60;;;23.60;31.40;;;;;;6170106;28;83593;-55
2020/12/16 13:51:24;;;;;;;25.88;15.85;;;23.60;32.10;;;;;;6171191;27;84009;-53
2020/12/16 13:54:25;;;;;;;27.85;16.70;;;23.70;32.10;;;;;;6170180;28;85350;-53
2020/12/16 13:57:25;;;;;;;26.77;16.25;;;23.70;32.10;;;;;;6173532;27;83343;-51
2020/12/16 14:00:26;;;;;;;27.58;15.43;;;23.70;32.10;;;;;;6167016;28;86222;-49
2020/12/16 14:03:26;;;;;;;29.02;16.15;;;23.70;32.10;;;;;;6172584;27;83206;-48
2020/12/16 14:06:27;;;;;;;31.30;16.48;;;23.70;32.10;;;;;;6170325;28;83524;-49
2020/12/16 14:09:28;;;;;;;29.90;16.17;;;23.70;32.20;;;;;;6171389;27;84104;-50
2020/12/16 14:12:28;;;;;;;26.80;16.40;;;23.70;32.20;;;;;;6173049;28;83482;-49
2020/12/16 14:15:29;;;;;;;25.05;15.10;;;23.80;32.10;;;;;;6174795;27;83572;-47
2020/12/16 14:18:29;;;;;;;26.88;15.77;;;23.80;32.10;;;;;;6180930;28;83777;-49
2020/12/16 14:21:30;;;;;;;27.95;16.02;;;23.80;32.00;;;;;;6180677;28;84825;-48
2020/12/16 14:24:30;;;;;;;28.65;15.90;;;23.90;32.00;;;;;;6175727;28;85808;-50
2020/12/16 14:27:31;;;;;;;26.70;14.90;;;23.90;31.90;;;;;;6176787;28;84130;-49
2020/12/16 14:30:31;;;;;;;28.90;15.38;;;23.90;31.90;;;;;;6176333;28;83748;-50
2020/12/16 14:33:34;;;;;;;30.75;16.05;;;23.90;31.90;;;;;;6179279;28;83318;-54
2020/12/16 14:36:34;;;;;;;26.63;15.32;;;23.90;31.80;;;;;;6176413;28;83329;-50
2020/12/16 14:39:35;;;;;;;26.15;15.05;;;23.90;32.00;;;;;;6176258;27;83533;-49
2020/12/16 14:42:35;;;;;;;27.33;15.80;;;23.90;32.20;;;;;;6178888;28;83910;-48
2020/12/16 14:45:36;;;;;;;29.33;15.65;;;24.00;32.20;;;;;;6176691;28;83159;-51
2020/12/16 14:48:36;;;;;;;30.85;15.98;;;24.00;32.90;;;;;;6181343;28;83017;-48
2020/12/16 14:51:37;;;;;;;30.05;17.00;;;24.00;32.50;;;;;;6182511;28;83559;-50
2020/12/16 14:54:37;;;;;;;27.25;15.50;;;24.00;32.60;;;;;;6176084;28;83251;-58
2020/12/16 14:57:39;;;;;;;26.98;15.43;;;24.00;32.70;;;;;;6176130;27;85064;-51
2020/12/16 15:00:39;;;;;;;30.63;16.40;;;24.00;32.90;;;;;;6174459;28;85968;-50
2020/12/16 15:03:40;;;;;;;29.45;15.52;;;24.00;33.00;;;;;;6174658;27;83974;-50
2020/12/16 15:06:41;;;;;;;30.27;16.30;;;24.00;33.10;;;;;;6173744;28;86245;-51
2020/12/16 15:09:41;;;;;;;29.60;16.38;;;24.00;33.10;;;;;;6179925;27;83606;-52
2020/12/16 15:12:42;;;;;;;38.00;16.88;;;24.00;33.30;;;;;;6180323;28;83685;-54
2020/12/16 15:15:42;;;;;;;24.88;15.00;;;23.90;33.20;;;;;;6180458;27;83165;-52
2020/12/16 15:18:43;;;;;;;25.55;15.27;;;24.00;33.50;;;;;;6177135;28;83328;-52
2020/12/16 15:21:43;;;;;;;31.13;15.68;;;23.90;33.40;;;;;;6181156;27;83785;-50